createdAt,value
2022-09-18T00:01:11.858Z,11.50
2022-09-18T00:03:40.508Z,11.50
2022-09-18T00:06:16.198Z,11.50
2022-09-18T00:08:46.194Z,11.50
2022-09-18T00:11:15.210Z,11.40
2022-09-18T00:13:43.041Z,11.30
2022-09-18T00:16:13.438Z,11.30
2022-09-18T00:18:40.898Z,11.30
2022-09-18T00:21:11.661Z,11.30
2022-09-18T00:23:39.300Z,11.30
2022-09-18T00:26:07.217Z,11.30
2022-09-18T00:28:34.867Z,11.40
2022-09-18T00:31:06.691Z,11.40
2022-09-18T00:33:33.769Z,11.40
2022-09-18T00:36:04.229Z,11.40
2022-09-18T00:38:32.152Z,11.50
2022-09-18T00:41:00.867Z,11.50
2022-09-18T00:43:30.740Z,11.50
2022-09-18T00:46:23.612Z,11.40
2022-09-18T00:48:57.336Z,11.40
2022-09-18T00:51:26.018Z,11.40
2022-09-18T00:54:25.073Z,11.40
2022-09-18T00:56:55.481Z,11.40
2022-09-18T00:59:34.098Z,11.40
2022-09-18T01:02:01.707Z,11.30
2022-09-18T01:04:29.454Z,11.40
2022-09-18T01:07:20.670Z,11.30
2022-09-18T01:10:03.477Z,11.40
2022-09-18T01:12:54.555Z,11.30
2022-09-18T01:15:30.037Z,11.30
2022-09-18T01:18:11.386Z,11.20
2022-09-18T01:21:05.720Z,11.20
2022-09-18T01:23:53.848Z,11.00
2022-09-18T01:26:36.314Z,11.00
2022-09-18T01:29:10.343Z,11.00
2022-09-18T01:31:52.500Z,10.90
2022-09-18T01:34:47.244Z,10.80
2022-09-18T01:37:43.847Z,10.80
2022-09-18T01:40:23.925Z,10.80
2022-09-18T01:42:54.070Z,10.80
2022-09-18T01:45:27.763Z,10.70
2022-09-18T01:48:05.234Z,10.70
2022-09-18T01:50:35.060Z,10.70
2022-09-18T01:53:22.124Z,10.70
2022-09-18T01:56:22.558Z,10.60
2022-09-18T01:58:51.100Z,10.60
2022-09-18T02:01:21.212Z,10.60
2022-09-18T02:04:02.428Z,10.60
2022-09-18T02:06:41.665Z,10.60
2022-09-18T02:09:10.464Z,10.60
2022-09-18T02:11:40.716Z,10.60
2022-09-18T02:14:12.711Z,10.60
2022-09-18T02:16:52.772Z,10.60
2022-09-18T02:19:29.007Z,10.50
2022-09-18T02:21:57.926Z,10.40
2022-09-18T02:24:29.799Z,10.40
2022-09-18T02:26:57.072Z,10.30
2022-09-18T02:29:24.974Z,10.20
2022-09-18T02:31:52.440Z,10.20
2022-09-18T02:34:20.070Z,10.10
2022-09-18T02:37:00.707Z,10.10
2022-09-18T02:39:35.773Z,10.00
2022-09-18T02:42:29.939Z,10.00
2022-09-18T02:45:06.065Z,9.90
2022-09-18T02:47:47.065Z,10.00
2022-09-18T02:50:31.813Z,9.90
2022-09-18T02:53:11.744Z,9.80
2022-09-18T02:55:46.954Z,9.70
2022-09-18T02:58:29.417Z,9.70
2022-09-18T03:01:00.634Z,9.80
2022-09-18T03:03:30.590Z,9.70
2022-09-18T03:05:57.350Z,9.70
2022-09-18T03:08:24.861Z,9.70
2022-09-18T03:10:51.453Z,9.60
2022-09-18T03:13:18.014Z,9.60
2022-09-18T03:15:44.767Z,9.70
2022-09-18T03:18:11.383Z,9.60
2022-09-18T03:20:37.960Z,9.70
2022-09-18T03:23:04.504Z,9.70
2022-09-18T03:25:31.220Z,9.60
2022-09-18T03:27:57.918Z,9.70
2022-09-18T03:30:24.493Z,9.60
2022-09-18T03:32:51.087Z,9.50
2022-09-18T03:35:17.643Z,9.50
2022-09-18T03:37:44.196Z,9.50
2022-09-18T03:40:11.053Z,9.30
2022-09-18T03:42:37.894Z,9.30
2022-09-18T03:45:05.176Z,9.40
2022-09-18T03:47:35.680Z,9.30
2022-09-18T03:50:05.907Z,9.30
2022-09-18T03:52:34.525Z,9.30
2022-09-18T03:55:01.078Z,9.30
2022-09-18T03:57:27.764Z,9.20
2022-09-18T03:59:54.369Z,9.10
2022-09-18T04:02:21.086Z,9.10
2022-09-18T04:04:47.801Z,9.00
2022-09-18T04:07:14.518Z,9.10
2022-09-18T04:09:41.368Z,9.00
2022-09-18T04:12:08.092Z,9.00
2022-09-18T04:14:34.696Z,9.00
2022-09-18T04:17:01.350Z,9.00
2022-09-18T04:19:28.081Z,9.00
2022-09-18T04:21:54.649Z,9.00
2022-09-18T04:24:21.234Z,9.00
2022-09-18T04:26:47.817Z,9.00
2022-09-18T04:29:14.473Z,9.00
2022-09-18T04:31:41.212Z,9.00
2022-09-18T04:34:07.797Z,8.90
2022-09-18T04:36:34.347Z,8.90
2022-09-18T04:39:00.935Z,8.80
2022-09-18T04:41:27.521Z,8.90
2022-09-18T04:43:54.089Z,8.90
2022-09-18T04:46:20.828Z,8.90
2022-09-18T04:48:49.539Z,8.90
2022-09-18T04:51:16.457Z,8.90
2022-09-18T04:53:43.248Z,8.80
2022-09-18T04:56:09.989Z,8.80
2022-09-18T04:58:36.691Z,8.80
2022-09-18T05:01:03.807Z,8.70
2022-09-18T05:03:30.471Z,8.60
2022-09-18T05:05:57.020Z,8.60
2022-09-18T05:08:23.642Z,8.50
2022-09-18T05:10:50.237Z,8.40
2022-09-18T05:13:16.861Z,8.40
2022-09-18T05:15:43.542Z,8.40
2022-09-18T05:18:11.831Z,8.30
2022-09-18T05:20:39.161Z,8.40
2022-09-18T05:23:06.934Z,8.30
2022-09-18T05:25:33.611Z,8.40
2022-09-18T05:28:01.956Z,8.40
2022-09-18T05:30:29.702Z,8.40
2022-09-18T05:32:59.089Z,8.30
2022-09-18T05:35:28.181Z,8.30
2022-09-18T05:37:55.459Z,8.40
2022-09-18T05:40:24.500Z,8.40
2022-09-18T05:42:54.967Z,8.40
2022-09-18T05:45:22.644Z,8.40
2022-09-18T05:48:05.399Z,8.40
2022-09-18T05:50:32.954Z,8.50
2022-09-18T05:53:03.501Z,8.50
2022-09-18T05:55:31.886Z,8.50
2022-09-18T05:58:00.680Z,8.50
2022-09-18T06:00:28.816Z,8.60
2022-09-18T06:02:57.557Z,8.60
2022-09-18T06:05:25.026Z,8.60
2022-09-18T06:07:53.715Z,8.60
2022-09-18T06:10:23.199Z,8.60
2022-09-18T06:12:50.104Z,8.70
2022-09-18T06:15:17.777Z,8.80
2022-09-18T06:17:51.836Z,8.90
2022-09-18T06:20:18.483Z,8.90
2022-09-18T06:22:45.495Z,9.00
2022-09-18T06:25:12.056Z,9.00
2022-09-18T06:27:38.750Z,9.00
2022-09-18T06:30:05.876Z,9.00
2022-09-18T06:32:32.567Z,9.10
2022-09-18T06:34:59.149Z,9.10
2022-09-18T06:37:25.788Z,9.10
2022-09-18T06:39:52.533Z,9.20
2022-09-18T06:42:19.254Z,9.30
2022-09-18T06:44:46.071Z,9.30
2022-09-18T06:47:12.633Z,9.40
2022-09-18T06:49:39.200Z,9.40
2022-09-18T06:52:05.850Z,9.40
2022-09-18T06:54:32.444Z,9.60
2022-09-18T06:56:58.990Z,9.60
2022-09-18T06:59:25.737Z,9.60
2022-09-18T07:01:52.480Z,9.60
2022-09-18T07:04:21.938Z,9.70
2022-09-18T07:06:48.562Z,9.70
2022-09-18T07:09:15.316Z,9.80
2022-09-18T07:11:41.875Z,9.70
2022-09-18T07:14:08.514Z,9.80
2022-09-18T07:16:35.782Z,9.70
2022-09-18T07:19:02.750Z,9.80
2022-09-18T07:21:29.783Z,9.80
2022-09-18T07:23:56.470Z,9.90
2022-09-18T07:26:23.479Z,10.00
2022-09-18T07:28:52.144Z,10.00
2022-09-18T07:31:19.133Z,10.00
2022-09-18T07:33:51.552Z,10.10
2022-09-18T07:36:18.449Z,10.10
2022-09-18T07:38:45.315Z,10.20
2022-09-18T07:41:11.941Z,10.30
2022-09-18T07:43:38.563Z,10.30
2022-09-18T07:46:05.791Z,10.40
2022-09-18T07:48:32.407Z,10.50
2022-09-18T07:50:59.133Z,10.50
2022-09-18T07:53:26.488Z,10.50
2022-09-18T07:55:55.760Z,10.50
2022-09-18T07:58:25.677Z,10.50
2022-09-18T08:00:55.193Z,10.60
2022-09-18T08:03:21.800Z,10.70
2022-09-18T08:05:48.438Z,10.80
2022-09-18T08:08:15.838Z,10.80
2022-09-18T08:10:44.726Z,10.90
2022-09-18T08:13:12.342Z,10.90
2022-09-18T08:15:43.177Z,11.00
2022-09-18T08:18:11.627Z,11.10
2022-09-18T08:20:38.450Z,11.10
2022-09-18T08:23:08.607Z,11.20
2022-09-18T08:25:35.738Z,11.20
2022-09-18T08:28:03.908Z,11.30
2022-09-18T08:30:31.337Z,11.30
2022-09-18T08:32:59.474Z,11.40
2022-09-18T08:35:26.137Z,11.40
2022-09-18T08:37:56.536Z,11.50
2022-09-18T08:40:35.247Z,11.50
2022-09-18T08:43:32.344Z,11.60
2022-09-18T08:46:06.581Z,11.70
2022-09-18T08:49:09.396Z,11.80
2022-09-18T08:52:00.331Z,11.80
2022-09-18T08:54:29.630Z,11.90
2022-09-18T08:56:57.553Z,11.90
2022-09-18T08:59:58.198Z,12.00
2022-09-18T09:02:30.429Z,12.00
2022-09-18T09:05:00.857Z,12.10
2022-09-18T09:07:50.769Z,12.10
2022-09-18T09:10:47.821Z,12.20
2022-09-18T09:13:55.910Z,12.30
2022-09-18T09:16:35.679Z,12.30
2022-09-18T09:19:18.232Z,12.40
2022-09-18T09:22:15.817Z,12.40
2022-09-18T09:25:00.908Z,12.40
2022-09-18T09:27:37.369Z,12.50
2022-09-18T09:30:15.778Z,12.60
2022-09-18T09:33:08.223Z,12.70
2022-09-18T09:35:45.381Z,12.70
2022-09-18T09:38:35.372Z,12.70
2022-09-18T09:41:27.266Z,12.80
2022-09-18T09:44:16.827Z,12.80
2022-09-18T09:47:21.215Z,12.80
2022-09-18T09:50:02.722Z,12.80
2022-09-18T09:52:31.552Z,12.90
2022-09-18T09:55:07.157Z,12.90
2022-09-18T09:57:44.976Z,13.00
2022-09-18T10:00:19.690Z,12.90
2022-09-18T10:03:01.402Z,12.90
2022-09-18T10:05:52.969Z,13.00
2022-09-18T10:08:40.537Z,13.00
2022-09-18T10:11:11.160Z,13.10
2022-09-18T10:14:05.344Z,13.20
2022-09-18T10:16:40.409Z,13.30
2022-09-18T10:19:20.359Z,13.30
2022-09-18T10:21:49.340Z,13.40
2022-09-18T10:24:40.004Z,13.40
2022-09-18T10:27:11.899Z,13.40
2022-09-18T10:29:39.083Z,13.40
2022-09-18T10:32:06.811Z,13.50
2022-09-18T10:34:45.690Z,13.50
2022-09-18T10:37:39.254Z,13.60
2022-09-18T10:40:26.255Z,13.70
2022-09-18T10:42:55.350Z,13.70
2022-09-18T10:45:28.379Z,13.70
2022-09-18T10:48:13.960Z,13.70
2022-09-18T10:51:01.783Z,13.80
2022-09-18T10:53:33.542Z,13.90
2022-09-18T10:56:14.979Z,13.90
2022-09-18T10:58:42.884Z,14.00
2022-09-18T11:01:10.867Z,14.00
2022-09-18T11:03:39.781Z,14.10
2022-09-18T11:06:25.593Z,14.10
2022-09-18T11:08:54.560Z,14.20
2022-09-18T11:11:29.908Z,14.20
2022-09-18T11:14:00.028Z,14.20
2022-09-18T11:16:49.264Z,14.30
2022-09-18T11:19:28.347Z,14.30
2022-09-18T11:21:59.276Z,14.40
2022-09-18T11:24:28.419Z,14.40
2022-09-18T11:26:57.453Z,14.50
2022-09-18T11:29:30.604Z,14.60
2022-09-18T11:32:03.769Z,14.60
2022-09-18T11:34:39.103Z,14.60
2022-09-18T11:37:14.502Z,14.70
2022-09-18T11:39:45.094Z,14.80
2022-09-18T11:42:17.128Z,14.80
2022-09-18T11:44:44.772Z,14.90
2022-09-18T11:47:35.463Z,14.90
2022-09-18T11:50:05.327Z,15.00
2022-09-18T11:52:44.161Z,15.00
2022-09-18T11:55:19.658Z,15.00
2022-09-18T11:57:50.941Z,15.10
2022-09-18T12:00:20.676Z,15.00
2022-09-18T12:03:12.578Z,15.10
2022-09-18T12:05:44.423Z,15.10
2022-09-18T12:08:36.784Z,15.20
2022-09-18T12:11:34.443Z,15.30
2022-09-18T12:14:12.636Z,15.30
2022-09-18T12:17:01.029Z,15.30
2022-09-18T12:19:42.672Z,15.30
2022-09-18T12:22:23.344Z,15.40
2022-09-18T12:24:50.296Z,15.40
2022-09-18T12:27:27.943Z,15.40
2022-09-18T12:30:03.976Z,15.50
2022-09-18T12:32:54.291Z,15.60
2022-09-18T12:35:44.901Z,15.50
2022-09-18T12:38:25.727Z,15.70
2022-09-18T12:41:21.265Z,15.70
2022-09-18T12:44:06.031Z,15.80
2022-09-18T12:46:35.709Z,15.80
2022-09-18T12:49:31.917Z,15.80
2022-09-18T12:52:07.653Z,15.80
2022-09-18T12:54:53.102Z,15.80
2022-09-18T12:57:42.785Z,15.90
2022-09-18T13:00:14.502Z,15.90
2022-09-18T13:02:52.872Z,16.00
2022-09-18T13:05:42.617Z,16.00
2022-09-18T13:08:23.617Z,16.00
2022-09-18T13:10:54.518Z,16.10
2022-09-18T13:13:48.008Z,16.10
2022-09-18T13:16:17.594Z,16.20
2022-09-18T13:18:59.387Z,16.10
2022-09-18T13:21:30.988Z,16.20
2022-09-18T13:23:58.898Z,16.30
2022-09-18T13:26:30.326Z,16.30
2022-09-18T13:28:59.209Z,16.30
2022-09-18T13:31:27.904Z,16.30
2022-09-18T13:34:04.153Z,16.30
2022-09-18T13:36:38.398Z,16.40
2022-09-18T13:39:46.090Z,16.30
2022-09-18T13:42:41.427Z,16.40
2022-09-18T13:45:17.513Z,16.40
2022-09-18T13:48:22.779Z,16.50
2022-09-18T13:51:02.041Z,16.60
2022-09-18T13:53:40.753Z,16.70
2022-09-18T13:56:15.899Z,16.70
2022-09-18T13:58:49.976Z,16.80
2022-09-18T14:01:41.400Z,16.90
2022-09-18T14:04:39.857Z,17.00
2022-09-18T14:07:32.772Z,17.10
2022-09-18T14:10:05.720Z,17.30
2022-09-18T14:12:34.973Z,17.30
2022-09-18T14:15:24.389Z,17.40
2022-09-18T14:18:16.658Z,17.40
2022-09-18T14:20:52.341Z,17.40
2022-09-18T14:23:36.834Z,17.40
2022-09-18T14:26:28.286Z,17.30
2022-09-18T14:29:10.253Z,17.30
2022-09-18T14:31:44.517Z,17.30
2022-09-18T14:34:21.188Z,17.30
2022-09-18T14:36:50.253Z,17.20
2022-09-18T14:39:23.643Z,17.30
2022-09-18T14:41:55.703Z,17.20
2022-09-18T14:44:23.945Z,17.10
2022-09-18T14:46:59.610Z,17.10
2022-09-18T14:49:31.073Z,17.10
2022-09-18T14:52:04.454Z,17.10
2022-09-18T14:54:31.417Z,17.20
2022-09-18T14:57:02.046Z,17.20
2022-09-18T14:59:31.123Z,17.20
2022-09-18T15:02:19.172Z,17.20
2022-09-18T15:04:45.950Z,17.20
2022-09-18T15:07:20.816Z,17.10
2022-09-18T15:09:52.780Z,17.10
2022-09-18T15:12:22.995Z,17.10
2022-09-18T15:14:50.959Z,17.00
2022-09-18T15:17:23.349Z,17.10
2022-09-18T15:20:17.615Z,17.10
2022-09-18T15:22:45.289Z,17.00
2022-09-18T15:25:16.917Z,17.00
2022-09-18T15:27:46.587Z,17.10
2022-09-18T15:30:20.039Z,17.00
2022-09-18T15:32:55.343Z,17.00
2022-09-18T15:35:26.540Z,17.00
2022-09-18T15:38:03.358Z,17.00
2022-09-18T15:40:39.080Z,16.90
2022-09-18T15:43:26.896Z,16.90
2022-09-18T15:46:05.431Z,16.80
2022-09-18T15:48:44.379Z,16.80
2022-09-18T15:51:25.105Z,16.80
2022-09-18T15:54:13.175Z,16.80
2022-09-18T15:56:48.093Z,16.80
2022-09-18T15:59:19.509Z,16.80
2022-09-18T16:01:48.358Z,16.80
2022-09-18T16:04:17.029Z,16.80
2022-09-18T16:06:52.485Z,16.70
2022-09-18T16:09:28.185Z,16.70
2022-09-18T16:11:56.531Z,16.70
2022-09-18T16:14:46.187Z,16.70
2022-09-18T16:17:36.583Z,16.70
2022-09-18T16:20:53.561Z,16.70
2022-09-18T16:23:33.304Z,16.60
2022-09-18T16:26:05.153Z,16.60
2022-09-18T16:28:39.546Z,16.60
2022-09-18T16:31:06.272Z,16.60
2022-09-18T16:33:34.192Z,16.60
2022-09-18T16:36:10.411Z,16.50
2022-09-18T16:38:37.044Z,16.50
2022-09-18T16:41:03.644Z,16.50
2022-09-18T16:43:30.320Z,16.50
2022-09-18T16:45:56.901Z,16.40
2022-09-18T16:48:24.970Z,16.40
2022-09-18T16:50:51.630Z,16.30
2022-09-18T16:53:18.500Z,16.30
2022-09-18T16:55:49.505Z,16.30
2022-09-18T16:58:18.679Z,16.20
2022-09-18T17:00:45.626Z,16.20
2022-09-18T17:03:12.665Z,16.10
2022-09-18T17:05:39.304Z,16.20
2022-09-18T17:08:06.249Z,16.10
2022-09-18T17:10:33.655Z,16.10
2022-09-18T17:13:00.683Z,16.10
2022-09-18T17:15:27.433Z,15.90
2022-09-18T17:17:54.142Z,15.90
2022-09-18T17:20:21.203Z,15.90
2022-09-18T17:22:48.601Z,15.90
2022-09-18T17:25:15.553Z,15.80
2022-09-18T17:27:43.885Z,15.70
2022-09-18T17:30:11.569Z,15.70
2022-09-18T17:32:38.627Z,15.70
2022-09-18T17:35:05.591Z,15.70
2022-09-18T17:37:32.194Z,15.70
2022-09-18T17:40:00.805Z,15.70
2022-09-18T17:42:27.600Z,15.60
2022-09-18T17:44:59.537Z,15.60
2022-09-18T17:47:26.307Z,15.60
2022-09-18T17:49:52.910Z,15.60
2022-09-18T17:52:20.089Z,15.50
2022-09-18T17:54:46.999Z,15.50
2022-09-18T17:57:13.644Z,15.50
2022-09-18T17:59:42.415Z,15.50
2022-09-18T18:02:11.215Z,15.50
2022-09-18T18:04:40.509Z,15.50
2022-09-18T18:07:07.135Z,15.50
2022-09-18T18:09:36.674Z,15.50
2022-09-18T18:12:05.108Z,15.40
2022-09-18T18:14:32.954Z,15.40
2022-09-18T18:17:00.868Z,15.40
2022-09-18T18:19:28.073Z,15.40
2022-09-18T18:21:55.001Z,15.30
2022-09-18T18:24:21.950Z,15.30
2022-09-18T18:26:48.553Z,15.30
2022-09-18T18:29:20.007Z,15.30
2022-09-18T18:31:49.492Z,15.30
2022-09-18T18:34:23.672Z,15.20
2022-09-18T18:36:50.668Z,15.20
2022-09-18T18:39:19.785Z,15.20
2022-09-18T18:41:47.137Z,15.20
2022-09-18T18:44:14.127Z,15.10
2022-09-18T18:46:40.837Z,15.10
2022-09-18T18:49:11.411Z,15.10
2022-09-18T18:51:42.957Z,15.10
2022-09-18T18:54:10.053Z,15.10
2022-09-18T18:56:38.535Z,15.10
2022-09-18T18:59:07.909Z,15.10
2022-09-18T19:01:35.939Z,15.10
2022-09-18T19:04:11.503Z,15.10
2022-09-18T19:06:40.634Z,15.10
2022-09-18T19:09:16.986Z,15.00
2022-09-18T19:11:49.381Z,15.00
2022-09-18T19:14:17.229Z,15.00
2022-09-18T19:16:46.222Z,15.00
2022-09-18T19:19:15.434Z,15.00
2022-09-18T19:21:42.275Z,14.90
2022-09-18T19:24:10.743Z,14.90
2022-09-18T19:26:39.807Z,14.90
2022-09-18T19:29:09.066Z,14.80
2022-09-18T19:31:38.796Z,14.80
2022-09-18T19:34:07.049Z,14.80
2022-09-18T19:36:34.547Z,14.80
2022-09-18T19:39:06.120Z,14.80
2022-09-18T19:41:46.630Z,14.80
2022-09-18T19:44:19.039Z,14.80
2022-09-18T19:46:47.907Z,14.80
2022-09-18T19:49:18.271Z,14.70
2022-09-18T19:51:45.849Z,14.70
2022-09-18T19:54:12.831Z,14.70
2022-09-18T19:56:46.139Z,14.70
2022-09-18T19:59:13.219Z,14.70
2022-09-18T20:01:40.111Z,14.70
2022-09-18T20:04:06.837Z,14.70
2022-09-18T20:06:33.515Z,14.70
2022-09-18T20:09:00.494Z,14.60
2022-09-18T20:11:27.232Z,14.70
2022-09-18T20:13:53.955Z,14.60
2022-09-18T20:16:21.132Z,14.50
2022-09-18T20:18:48.245Z,14.50
2022-09-18T20:21:17.327Z,14.50
2022-09-18T20:23:44.699Z,14.50
2022-09-18T20:26:14.278Z,14.50
2022-09-18T20:28:41.510Z,14.50
2022-09-18T20:31:13.246Z,14.50
2022-09-18T20:33:40.071Z,14.50
2022-09-18T20:36:08.807Z,14.40
2022-09-18T20:38:38.403Z,14.40
2022-09-18T20:41:07.627Z,14.40
2022-09-18T20:43:35.517Z,14.30
2022-09-18T20:46:05.187Z,14.30
2022-09-18T20:48:41.494Z,14.30
2022-09-18T20:51:10.676Z,14.30
2022-09-18T20:53:39.704Z,14.20
2022-09-18T20:56:07.919Z,14.20
2022-09-18T20:58:35.397Z,14.20
2022-09-18T21:01:10.872Z,14.30
2022-09-18T21:03:40.610Z,14.20
2022-09-18T21:06:23.313Z,14.20
2022-09-18T21:08:53.355Z,14.20
2022-09-18T21:11:31.464Z,14.20
2022-09-18T21:14:03.522Z,14.10
2022-09-18T21:16:33.061Z,14.20
2022-09-18T21:19:01.819Z,14.20
2022-09-18T21:21:30.908Z,14.20
2022-09-18T21:24:02.065Z,14.10
2022-09-18T21:26:33.654Z,14.10
2022-09-18T21:29:07.645Z,14.10
2022-09-18T21:31:36.353Z,14.10
2022-09-18T21:34:04.375Z,14.10
2022-09-18T21:36:33.534Z,14.10
2022-09-18T21:39:00.261Z,14.10
2022-09-18T21:41:26.841Z,14.10
2022-09-18T21:43:54.065Z,14.10
2022-09-18T21:46:22.264Z,14.10
2022-09-18T21:48:54.232Z,14.10
2022-09-18T21:51:21.137Z,14.10
2022-09-18T21:53:47.884Z,14.10
2022-09-18T21:56:20.031Z,14.10
2022-09-18T21:58:47.621Z,14.00
2022-09-18T22:01:18.132Z,14.00
2022-09-18T22:03:52.196Z,14.00
2022-09-18T22:06:23.026Z,14.00
2022-09-18T22:08:53.255Z,14.00
2022-09-18T22:11:24.073Z,14.00
2022-09-18T22:13:52.489Z,13.90
2022-09-18T22:16:20.155Z,13.90
2022-09-18T22:18:49.717Z,13.90
2022-09-18T22:21:21.671Z,13.80
2022-09-18T22:23:53.225Z,13.80
2022-09-18T22:26:24.861Z,13.80
2022-09-18T22:28:56.442Z,13.80
2022-09-18T22:31:24.462Z,13.80
2022-09-18T22:33:57.530Z,13.80
2022-09-18T22:36:25.385Z,13.80
2022-09-18T22:38:53.129Z,13.70
2022-09-18T22:41:20.307Z,13.70
2022-09-18T22:43:47.036Z,13.80
2022-09-18T22:46:15.734Z,13.70
2022-09-18T22:48:43.126Z,13.70
2022-09-18T22:51:12.083Z,13.70
2022-09-18T22:53:45.296Z,13.80
2022-09-18T22:56:14.575Z,13.70
2022-09-18T22:58:42.227Z,13.70
2022-09-18T23:01:14.038Z,13.70
2022-09-18T23:03:40.675Z,13.60
2022-09-18T23:06:08.340Z,13.50
2022-09-18T23:08:35.825Z,13.40
2022-09-18T23:11:02.458Z,13.40
2022-09-18T23:13:31.851Z,13.50
2022-09-18T23:16:03.462Z,13.50
2022-09-18T23:18:30.160Z,13.50
2022-09-18T23:21:12.677Z,13.50
2022-09-18T23:23:45.718Z,13.50
2022-09-18T23:26:23.544Z,13.50
2022-09-18T23:28:52.236Z,13.50
2022-09-18T23:31:24.434Z,13.50
2022-09-18T23:33:53.644Z,13.50
2022-09-18T23:36:29.416Z,13.50
2022-09-18T23:38:58.636Z,13.50
2022-09-18T23:41:26.579Z,13.50
2022-09-18T23:43:54.222Z,13.50
2022-09-18T23:46:22.110Z,13.50
2022-09-18T23:48:54.749Z,13.60
2022-09-18T23:51:23.453Z,13.60
2022-09-18T23:53:50.112Z,13.50
2022-09-18T23:56:16.944Z,13.50
2022-09-18T23:58:44.782Z,13.50
